createdAt,value
2023-05-20T00:00:26.611Z,13.48
2023-05-20T00:01:26.645Z,13.48
2023-05-20T00:02:26.713Z,13.51
2023-05-20T00:03:26.812Z,13.42
2023-05-20T00:04:26.738Z,13.58
2023-05-20T00:05:26.747Z,13.47
2023-05-20T00:06:26.806Z,13.47
2023-05-20T00:07:26.812Z,13.40
2023-05-20T00:08:26.843Z,13.47
2023-05-20T00:09:26.860Z,13.47
2023-05-20T00:10:26.889Z,13.45
2023-05-20T00:11:26.923Z,13.51
2023-05-20T00:12:26.944Z,13.44
2023-05-20T00:13:26.993Z,13.37
2023-05-20T00:14:27.000Z,13.37
2023-05-20T00:15:27.024Z,13.31
2023-05-20T00:16:27.074Z,13.29
2023-05-20T00:17:27.122Z,13.28
2023-05-20T00:18:27.115Z,13.11
2023-05-20T00:19:27.161Z,13.20
2023-05-20T00:20:27.161Z,13.19
2023-05-20T00:21:27.190Z,13.21
2023-05-20T00:22:27.236Z,13.32
2023-05-20T00:23:27.246Z,13.21
2023-05-20T00:24:27.273Z,13.31
2023-05-20T00:25:27.300Z,13.24
2023-05-20T00:26:27.339Z,13.21
2023-05-20T00:27:27.367Z,13.24
2023-05-20T00:28:27.393Z,13.17
2023-05-20T00:29:27.408Z,13.21
2023-05-20T00:30:30.065Z,13.10
2023-05-20T00:31:27.495Z,13.11
2023-05-20T00:32:27.610Z,13.10
2023-05-20T00:33:27.524Z,13.11
2023-05-20T00:34:27.548Z,13.16
2023-05-20T00:35:27.571Z,13.10
2023-05-20T00:36:27.598Z,13.02
2023-05-20T00:37:27.632Z,13.09
2023-05-20T00:38:27.743Z,13.09
2023-05-20T00:39:27.686Z,13.03
2023-05-20T00:40:27.725Z,13.01
2023-05-20T00:41:27.736Z,12.98
2023-05-20T00:42:27.765Z,13.02
2023-05-20T00:43:27.788Z,13.09
2023-05-20T00:44:27.832Z,12.99
2023-05-20T00:45:27.844Z,12.91
2023-05-20T00:46:27.900Z,12.91
2023-05-20T00:47:27.924Z,12.92
2023-05-20T00:48:27.927Z,12.94
2023-05-20T00:49:27.954Z,12.95
2023-05-20T00:50:27.985Z,12.98
2023-05-20T00:51:28.011Z,12.91
2023-05-20T00:52:28.033Z,12.95
2023-05-20T00:53:28.067Z,12.86
2023-05-20T00:54:28.111Z,12.89
2023-05-20T00:55:28.122Z,12.73
2023-05-20T00:56:28.144Z,12.76
2023-05-20T00:57:28.172Z,12.76
2023-05-20T00:58:28.214Z,12.76
2023-05-20T00:59:28.222Z,12.69
2023-05-20T01:00:28.258Z,12.65
2023-05-20T01:01:28.338Z,12.63
2023-05-20T01:02:28.420Z,12.52
2023-05-20T01:03:28.463Z,12.45
2023-05-20T01:04:28.361Z,12.45
2023-05-20T01:05:28.399Z,12.41
2023-05-20T01:06:28.412Z,12.34
2023-05-20T01:07:28.439Z,12.44
2023-05-20T01:08:28.471Z,12.36
2023-05-20T01:09:28.504Z,12.41
2023-05-20T01:10:28.545Z,12.33
2023-05-20T01:11:28.548Z,12.28
2023-05-20T01:12:28.582Z,12.22
2023-05-20T01:13:28.608Z,12.11
2023-05-20T01:14:28.629Z,12.10
2023-05-20T01:15:28.662Z,12.07
2023-05-20T01:16:28.749Z,12.11
2023-05-20T01:17:28.748Z,12.07
2023-05-20T01:18:28.739Z,11.98
2023-05-20T01:19:28.814Z,12.05
2023-05-20T01:20:28.801Z,11.89
2023-05-20T01:21:28.819Z,11.94
2023-05-20T01:22:28.851Z,11.89
2023-05-20T01:23:28.874Z,11.89
2023-05-20T01:24:28.905Z,12.10
2023-05-20T01:25:28.924Z,12.08
2023-05-20T01:26:28.979Z,12.05
2023-05-20T01:27:28.985Z,12.11
2023-05-20T01:28:29.008Z,12.10
2023-05-20T01:29:29.033Z,12.13
2023-05-20T01:30:29.265Z,12.13
2023-05-20T01:32:11.638Z,12.20
2023-05-20T01:33:11.685Z,12.16
2023-05-20T01:34:11.688Z,12.22
2023-05-20T01:35:11.713Z,12.25
2023-05-20T01:36:11.741Z,12.29
2023-05-20T01:37:11.772Z,12.19
2023-05-20T01:38:11.791Z,12.20
2023-05-20T01:39:11.822Z,12.23
2023-05-20T01:40:11.845Z,12.19
2023-05-20T01:41:11.873Z,12.19
2023-05-20T01:42:11.967Z,12.28
2023-05-20T01:43:11.927Z,12.31
2023-05-20T01:44:11.951Z,12.26
2023-05-20T01:45:11.987Z,12.22
2023-05-20T01:46:12.036Z,12.04
2023-05-20T01:47:12.033Z,12.10
2023-05-20T01:48:12.112Z,12.20
2023-05-20T01:49:12.092Z,12.05
2023-05-20T01:50:12.120Z,11.98
2023-05-20T01:51:12.142Z,11.95
2023-05-20T01:52:12.780Z,11.85
2023-05-20T01:53:12.193Z,11.79
2023-05-20T01:54:12.217Z,11.70
2023-05-20T01:55:12.245Z,11.78
2023-05-20T01:56:12.269Z,11.63
2023-05-20T01:57:12.301Z,11.70
2023-05-20T01:58:12.424Z,11.64
2023-05-20T01:59:12.355Z,11.63
2023-05-20T02:00:12.380Z,11.63
2023-05-20T02:01:12.499Z,11.64
2023-05-20T02:02:12.458Z,11.66
2023-05-20T02:03:12.503Z,11.63
2023-05-20T02:04:12.487Z,11.56
2023-05-20T02:05:12.518Z,11.52
2023-05-20T02:06:12.656Z,11.49
2023-05-20T02:07:12.580Z,11.56
2023-05-20T02:08:12.601Z,11.48
2023-05-20T02:09:12.622Z,11.43
2023-05-20T02:10:12.667Z,11.42
2023-05-20T02:11:12.678Z,11.35
2023-05-20T02:12:12.704Z,11.39
2023-05-20T02:13:12.732Z,11.35
2023-05-20T02:14:12.775Z,11.39
2023-05-20T02:15:12.791Z,11.33
2023-05-20T02:16:12.817Z,11.28
2023-05-20T02:17:12.870Z,11.33
2023-05-20T02:18:12.924Z,11.27
2023-05-20T02:19:13.269Z,11.30
2023-05-20T02:20:12.920Z,11.16
2023-05-20T02:21:12.949Z,11.21
2023-05-20T02:22:12.975Z,11.20
2023-05-20T02:23:13.005Z,11.16
2023-05-20T02:24:13.028Z,11.12
2023-05-20T02:25:13.058Z,11.18
2023-05-20T02:26:13.096Z,11.16
2023-05-20T02:27:13.184Z,11.12
2023-05-20T02:28:13.138Z,11.18
2023-05-20T02:29:13.162Z,11.18
2023-05-20T02:30:13.205Z,11.23
2023-05-20T02:31:13.232Z,11.21
2023-05-20T02:32:13.245Z,11.27
2023-05-20T02:33:13.316Z,11.39
2023-05-20T02:34:13.335Z,11.38
2023-05-20T02:35:13.322Z,11.35
2023-05-20T02:36:13.350Z,11.35
2023-05-20T02:37:13.378Z,11.39
2023-05-20T02:38:13.411Z,11.53
2023-05-20T02:39:13.434Z,11.53
2023-05-20T02:40:13.458Z,11.57
2023-05-20T02:41:13.489Z,11.56
2023-05-20T02:42:13.515Z,11.41
2023-05-20T02:43:13.564Z,11.49
2023-05-20T02:44:13.574Z,11.45
2023-05-20T02:45:13.597Z,11.39
2023-05-20T02:46:13.689Z,11.52
2023-05-20T02:47:13.646Z,11.43
2023-05-20T02:48:13.669Z,11.45
2023-05-20T02:49:13.699Z,11.53
2023-05-20T02:50:13.729Z,11.53
2023-05-20T02:51:13.753Z,11.51
2023-05-20T02:52:13.779Z,11.57
2023-05-20T02:53:13.806Z,11.57
2023-05-20T02:54:13.837Z,11.67
2023-05-20T02:55:13.858Z,11.68
2023-05-20T02:56:13.884Z,11.68
2023-05-20T02:57:13.911Z,11.66
2023-05-20T02:58:13.939Z,11.66
2023-05-20T02:59:13.982Z,11.70
2023-05-20T03:00:13.994Z,11.68
2023-05-20T03:01:14.040Z,11.79
2023-05-20T03:02:14.070Z,11.70
2023-05-20T03:03:14.073Z,11.75
2023-05-20T03:04:14.119Z,11.75
2023-05-20T03:05:14.127Z,11.76
2023-05-20T03:06:14.150Z,11.75
2023-05-20T03:07:14.178Z,11.70
2023-05-20T03:08:14.202Z,11.70
2023-05-20T03:09:14.234Z,11.73
2023-05-20T03:10:14.270Z,11.81
2023-05-20T03:11:14.283Z,11.76
2023-05-20T03:12:14.320Z,11.73
2023-05-20T03:13:14.344Z,11.79
2023-05-20T03:14:14.366Z,11.71
2023-05-20T03:15:14.396Z,11.71
2023-05-20T03:16:14.441Z,11.76
2023-05-20T03:17:14.455Z,11.82
2023-05-20T03:18:14.490Z,11.71
2023-05-20T03:19:14.555Z,11.75
2023-05-20T03:20:14.531Z,11.75
2023-05-20T03:21:14.546Z,11.71
2023-05-20T03:22:14.574Z,11.61
2023-05-20T03:23:14.601Z,11.61
2023-05-20T03:24:14.626Z,11.57
2023-05-20T03:25:14.658Z,11.57
2023-05-20T03:26:14.680Z,11.43
2023-05-20T03:27:14.708Z,11.39
2023-05-20T03:28:14.732Z,11.43
2023-05-20T03:29:14.763Z,11.23
2023-05-20T03:30:14.788Z,11.24
2023-05-20T03:31:14.848Z,11.20
2023-05-20T03:32:14.837Z,11.24
2023-05-20T03:33:14.866Z,11.13
2023-05-20T03:34:14.925Z,11.03
2023-05-20T03:35:14.936Z,11.02
2023-05-20T03:36:15.959Z,10.95
2023-05-20T03:37:14.970Z,10.90
2023-05-20T03:38:15.013Z,10.91
2023-05-20T03:39:15.025Z,10.90
2023-05-20T03:40:15.060Z,10.88
2023-05-20T03:41:15.077Z,10.88
2023-05-20T03:42:15.104Z,10.83
2023-05-20T03:43:15.129Z,10.83
2023-05-20T03:44:15.155Z,10.79
2023-05-20T03:45:15.185Z,10.73
2023-05-20T03:46:15.283Z,10.76
2023-05-20T03:47:15.281Z,10.66
2023-05-20T03:48:15.374Z,10.76
2023-05-20T03:49:15.352Z,10.79
2023-05-20T03:50:15.339Z,10.70
2023-05-20T03:51:15.391Z,10.76
2023-05-20T03:52:15.388Z,10.70
2023-05-20T03:53:15.394Z,10.65
2023-05-20T03:54:15.421Z,10.72
2023-05-20T03:55:15.447Z,10.65
2023-05-20T03:56:15.564Z,10.72
2023-05-20T03:57:15.511Z,10.73
2023-05-20T03:58:15.594Z,10.77
2023-05-20T03:59:15.558Z,10.79
2023-05-20T04:00:15.577Z,10.80
2023-05-20T04:01:15.611Z,10.76
2023-05-20T04:02:15.721Z,10.76
2023-05-20T04:03:15.749Z,10.77
2023-05-20T04:04:15.866Z,10.67
2023-05-20T04:05:15.719Z,10.75
2023-05-20T04:06:15.757Z,10.77
2023-05-20T04:07:15.778Z,10.85
2023-05-20T04:08:15.792Z,10.75
2023-05-20T04:09:15.828Z,10.76
2023-05-20T04:10:15.859Z,10.80
2023-05-20T04:11:15.869Z,10.67
2023-05-20T04:12:15.895Z,10.75
2023-05-20T04:13:15.926Z,10.83
2023-05-20T04:14:15.950Z,10.83
2023-05-20T04:15:15.979Z,10.80
2023-05-20T04:16:16.027Z,10.88
2023-05-20T04:17:16.032Z,10.88
2023-05-20T04:18:16.092Z,10.92
2023-05-20T04:19:16.143Z,10.91
2023-05-20T04:20:16.149Z,10.92
2023-05-20T04:21:16.138Z,10.90
2023-05-20T04:22:16.180Z,10.92
2023-05-20T04:23:16.201Z,11.02
2023-05-20T04:24:16.214Z,11.08
2023-05-20T04:25:16.246Z,11.18
2023-05-20T04:26:16.270Z,11.16
2023-05-20T04:27:16.300Z,11.16
2023-05-20T04:28:16.431Z,11.16
2023-05-20T04:29:16.350Z,11.18
2023-05-20T04:30:16.381Z,11.18
2023-05-20T04:31:16.534Z,11.26
2023-05-20T04:32:16.447Z,11.26
2023-05-20T04:33:16.464Z,11.30
2023-05-20T04:34:16.482Z,11.38
2023-05-20T04:35:16.516Z,11.30
2023-05-20T04:36:16.817Z,11.27
2023-05-20T04:37:16.562Z,11.35
2023-05-20T04:38:16.608Z,11.38
2023-05-20T04:39:16.617Z,11.39
2023-05-20T04:40:16.646Z,11.42
2023-05-20T04:41:16.682Z,11.48
2023-05-20T04:42:16.697Z,11.53
2023-05-20T04:43:16.727Z,11.53
2023-05-20T04:44:16.751Z,11.56
2023-05-20T04:45:16.780Z,11.66
2023-05-20T04:46:16.935Z,11.64
2023-05-20T04:47:16.831Z,11.64
2023-05-20T04:48:16.859Z,11.70
2023-05-20T04:49:16.901Z,11.75
2023-05-20T04:50:16.912Z,11.79
2023-05-20T04:51:16.941Z,11.78
2023-05-20T04:52:16.970Z,11.85
2023-05-20T04:53:16.996Z,11.82
2023-05-20T04:54:17.046Z,11.85
2023-05-20T04:55:17.049Z,11.89
2023-05-20T04:56:17.117Z,11.95
2023-05-20T04:57:17.109Z,12.10
2023-05-20T04:58:17.132Z,12.18
2023-05-20T04:59:17.159Z,12.20
2023-05-20T05:00:17.184Z,12.37
2023-05-20T05:01:17.224Z,12.41
2023-05-20T05:02:17.240Z,12.44
2023-05-20T05:03:17.312Z,12.58
2023-05-20T05:04:17.332Z,12.58
2023-05-20T05:05:17.332Z,12.63
2023-05-20T05:06:17.350Z,12.61
2023-05-20T05:07:17.377Z,12.74
2023-05-20T05:08:17.485Z,12.77
2023-05-20T05:09:17.444Z,12.81
2023-05-20T05:10:17.472Z,12.92
2023-05-20T05:11:17.511Z,12.92
2023-05-20T05:12:17.517Z,13.01
2023-05-20T05:13:17.541Z,12.98
2023-05-20T05:14:17.568Z,13.14
2023-05-20T05:15:17.600Z,13.21
2023-05-20T05:16:17.638Z,13.21
2023-05-20T05:17:17.657Z,13.45
2023-05-20T05:18:17.680Z,13.47
2023-05-20T05:19:17.722Z,13.58
2023-05-20T05:20:17.736Z,13.69
2023-05-20T05:21:17.779Z,13.81
2023-05-20T05:22:17.790Z,13.95
2023-05-20T05:23:17.816Z,14.08
2023-05-20T05:24:17.848Z,14.19
2023-05-20T05:25:17.894Z,14.24
2023-05-20T05:26:17.929Z,14.36
2023-05-20T05:27:17.936Z,14.41
2023-05-20T05:28:17.960Z,14.44
2023-05-20T05:29:17.992Z,14.45
2023-05-20T05:30:18.016Z,14.59
2023-05-20T05:31:18.044Z,14.67
2023-05-20T05:32:18.145Z,14.75
2023-05-20T05:33:18.142Z,14.79
2023-05-20T05:34:18.129Z,14.83
2023-05-20T05:35:18.161Z,14.94
2023-05-20T05:36:18.198Z,14.87
2023-05-20T05:37:18.214Z,14.89
2023-05-20T05:38:18.248Z,14.89
2023-05-20T05:39:18.267Z,14.86
2023-05-20T05:40:18.303Z,14.94
2023-05-20T05:41:18.332Z,14.95
2023-05-20T05:42:18.374Z,14.98
2023-05-20T05:43:18.390Z,15.04
2023-05-20T05:44:18.410Z,15.00
2023-05-20T05:45:18.450Z,15.00
2023-05-20T05:46:18.524Z,14.98
2023-05-20T05:47:18.495Z,15.01
2023-05-20T05:48:18.522Z,15.02
2023-05-20T05:49:18.549Z,15.07
2023-05-20T05:50:18.581Z,15.05
2023-05-20T05:51:18.613Z,15.05
2023-05-20T05:52:18.636Z,15.13
2023-05-20T05:53:18.676Z,15.18
2023-05-20T05:54:18.696Z,15.30
2023-05-20T05:55:18.721Z,15.19
2023-05-20T05:56:18.752Z,15.34
2023-05-20T05:57:18.779Z,15.33
2023-05-20T05:58:18.830Z,15.41
2023-05-20T05:59:18.835Z,15.44
2023-05-20T06:00:18.886Z,15.49
2023-05-20T06:01:18.933Z,15.56
2023-05-20T06:02:18.953Z,15.56
2023-05-20T06:03:19.006Z,15.68
2023-05-20T06:04:19.020Z,15.68
2023-05-20T06:05:19.024Z,15.67
2023-05-20T06:06:19.041Z,15.78
2023-05-20T06:07:19.069Z,15.73
2023-05-20T06:08:19.099Z,15.67
2023-05-20T06:09:19.123Z,15.67
2023-05-20T06:10:19.156Z,15.68
2023-05-20T06:11:19.202Z,15.81
2023-05-20T06:12:19.214Z,15.83
2023-05-20T06:13:19.248Z,15.81
2023-05-20T06:14:19.294Z,15.86
2023-05-20T06:15:19.299Z,15.98
2023-05-20T06:16:19.383Z,15.98
2023-05-20T06:17:19.353Z,15.99
2023-05-20T06:18:19.389Z,15.88
2023-05-20T06:19:23.460Z,15.98
2023-05-20T06:20:19.447Z,15.95
2023-05-20T06:21:19.470Z,15.96
2023-05-20T06:22:19.496Z,16.04
2023-05-20T06:23:19.524Z,15.96
2023-05-20T06:24:19.568Z,15.98
2023-05-20T06:25:19.615Z,16.07
2023-05-20T06:26:19.630Z,16.00
2023-05-20T06:27:19.648Z,16.00
2023-05-20T06:28:19.683Z,16.08
2023-05-20T06:29:19.711Z,16.21
2023-05-20T06:30:19.748Z,16.27
2023-05-20T06:31:19.775Z,16.21
2023-05-20T06:32:19.788Z,16.30
2023-05-20T06:33:19.827Z,16.27
2023-05-20T06:34:19.850Z,16.32
2023-05-20T06:35:20.496Z,16.40
2023-05-20T06:36:19.901Z,16.47
2023-05-20T06:37:19.942Z,16.45
2023-05-20T06:38:20.054Z,16.45
2023-05-20T06:39:20.197Z,16.49
2023-05-20T06:40:20.034Z,16.66
2023-05-20T06:41:20.050Z,16.57
2023-05-20T06:42:20.094Z,16.49
2023-05-20T06:43:20.120Z,16.62
2023-05-20T06:44:20.160Z,16.59
2023-05-20T06:45:20.876Z,16.66
2023-05-20T06:46:20.244Z,16.70
2023-05-20T06:47:20.263Z,16.92
2023-05-20T06:48:20.258Z,16.92
2023-05-20T06:49:20.286Z,17.03
2023-05-20T06:50:20.315Z,17.07
2023-05-20T06:51:20.352Z,17.05
2023-05-20T06:52:20.376Z,17.13
2023-05-20T06:53:20.427Z,17.28
2023-05-20T06:54:20.435Z,17.36
2023-05-20T06:55:20.463Z,17.52
2023-05-20T06:56:20.498Z,17.63
2023-05-20T06:57:20.522Z,17.65
2023-05-20T06:58:20.552Z,17.73
2023-05-20T06:59:20.599Z,17.63
2023-05-20T07:00:20.678Z,17.63
2023-05-20T07:01:20.711Z,17.65
2023-05-20T07:02:20.694Z,17.62
2023-05-20T07:03:20.744Z,17.62
2023-05-20T07:04:21.288Z,17.58
2023-05-20T07:05:20.752Z,17.74
2023-05-20T07:06:20.796Z,17.84
2023-05-20T07:07:20.818Z,17.92
2023-05-20T07:09:20.895Z,18.03
2023-05-20T07:11:21.140Z,17.94
2023-05-20T07:12:20.965Z,17.94
2023-05-20T07:14:21.041Z,17.92
2023-05-20T07:15:21.271Z,18.06
2023-05-20T07:16:21.113Z,18.27
2023-05-20T07:17:21.332Z,18.32
2023-05-20T07:18:21.163Z,18.51
2023-05-20T07:19:21.490Z,18.63
2023-05-20T07:20:21.261Z,18.78
2023-05-20T07:21:21.965Z,18.75
2023-05-20T07:22:21.284Z,18.61
2023-05-20T07:23:21.300Z,18.75
2023-05-20T07:24:21.332Z,18.93
2023-05-20T07:25:21.355Z,18.99
2023-05-20T07:26:21.388Z,19.05
2023-05-20T07:27:21.423Z,19.16
2023-05-20T07:28:21.463Z,19.43
2023-05-20T07:29:24.519Z,19.60
2023-05-20T07:30:21.516Z,19.67
2023-05-20T07:31:21.562Z,19.57
2023-05-20T07:32:21.585Z,19.65
2023-05-20T07:33:21.606Z,19.86
2023-05-20T07:34:21.677Z,20.00
2023-05-20T07:35:21.671Z,20.16
2023-05-20T07:36:21.706Z,20.16
2023-05-20T07:37:21.733Z,20.38
2023-05-20T07:38:21.760Z,20.34
2023-05-20T07:39:22.806Z,20.44
2023-05-20T07:40:21.826Z,20.08
2023-05-20T07:41:21.865Z,20.16
2023-05-20T07:42:21.890Z,20.08
2023-05-20T07:43:21.932Z,20.07
2023-05-20T07:44:21.956Z,19.87
2023-05-20T07:45:21.987Z,20.07
2023-05-20T07:46:22.068Z,20.18
2023-05-20T07:47:22.053Z,20.05
2023-05-20T07:48:22.082Z,20.12
2023-05-20T07:49:22.114Z,20.02
2023-05-20T07:50:22.167Z,20.05
2023-05-20T07:51:22.178Z,20.16
2023-05-20T07:52:24.834Z,20.07
2023-05-20T07:53:22.244Z,20.12
2023-05-20T07:54:23.079Z,19.86
2023-05-20T07:55:22.305Z,19.78
2023-05-20T07:56:22.355Z,19.72
2023-05-20T07:57:22.384Z,19.50
2023-05-20T07:58:22.404Z,19.55
2023-05-20T07:59:22.438Z,19.64
2023-05-20T08:00:22.464Z,19.74
2023-05-20T08:01:22.502Z,19.75
2023-05-20T08:02:22.607Z,19.75
2023-05-20T08:03:22.858Z,19.64
2023-05-20T08:04:22.630Z,19.63
2023-05-20T08:05:22.643Z,19.68
2023-05-20T08:06:22.677Z,19.74
2023-05-20T08:07:22.693Z,19.28
2023-05-20T08:08:22.718Z,19.30
2023-05-20T08:09:22.755Z,19.56
2023-05-20T08:10:22.866Z,19.50
2023-05-20T08:11:22.816Z,19.70
2023-05-20T08:12:22.847Z,19.72
2023-05-20T08:13:22.884Z,19.74
2023-05-20T08:14:22.914Z,19.74
2023-05-20T08:15:22.961Z,19.67
2023-05-20T08:16:23.010Z,19.61
2023-05-20T08:17:23.070Z,19.56
2023-05-20T08:18:23.038Z,19.16
2023-05-20T08:19:23.093Z,19.10
2023-05-20T08:20:23.192Z,19.19
2023-05-20T08:21:23.146Z,19.25
2023-05-20T08:22:23.191Z,19.47
2023-05-20T08:23:23.202Z,19.46
2023-05-20T08:24:23.235Z,19.53
2023-05-20T08:25:23.265Z,19.64
2023-05-20T08:26:23.303Z,19.60
2023-05-20T08:27:23.325Z,19.82
2023-05-20T08:28:23.355Z,20.11
2023-05-20T08:29:23.392Z,20.15
2023-05-20T08:30:23.417Z,20.44
2023-05-20T08:31:23.521Z,20.30
2023-05-20T08:32:23.581Z,20.46
2023-05-20T08:33:23.515Z,20.41
2023-05-20T08:34:23.546Z,20.56
2023-05-20T08:35:24.839Z,20.71
2023-05-20T08:36:23.609Z,20.72
2023-05-20T08:37:23.644Z,21.00
2023-05-20T08:38:23.711Z,21.03
2023-05-20T08:39:23.708Z,21.13
2023-05-20T08:40:23.749Z,21.09
2023-05-20T08:41:23.772Z,21.08
2023-05-20T08:42:23.803Z,20.85
2023-05-20T08:43:23.834Z,20.72
2023-05-20T08:44:23.867Z,20.32
2023-05-20T08:45:23.904Z,20.37
2023-05-20T08:46:23.937Z,20.49
2023-05-20T08:47:23.968Z,20.68
2023-05-20T08:48:24.012Z,20.78
2023-05-20T08:49:24.032Z,21.01
2023-05-20T08:50:24.064Z,21.16
2023-05-20T08:51:24.121Z,21.52
2023-05-20T08:52:24.126Z,21.71
2023-05-20T08:53:24.163Z,21.82
2023-05-20T08:54:24.222Z,21.93
2023-05-20T08:55:24.240Z,21.85
2023-05-20T08:56:24.252Z,21.82
2023-05-20T08:57:24.301Z,21.83
2023-05-20T08:58:24.320Z,21.89
2023-05-20T08:59:24.356Z,21.86
2023-05-20T09:00:24.384Z,21.96
2023-05-20T09:01:25.075Z,21.85
2023-05-20T09:02:24.487Z,22.15
2023-05-20T09:03:24.496Z,22.26
2023-05-20T09:04:24.524Z,22.23
2023-05-20T09:05:24.551Z,22.23
2023-05-20T09:06:24.596Z,22.38
2023-05-20T09:07:25.141Z,22.33
2023-05-20T09:08:24.964Z,22.31
2023-05-20T09:11:24.784Z,22.26
2023-05-20T09:13:24.828Z,22.22
2023-05-20T09:14:24.844Z,22.64
2023-05-20T09:15:24.881Z,22.70
2023-05-20T09:16:25.007Z,22.86
2023-05-20T09:17:27.646Z,23.21
2023-05-20T09:18:25.516Z,22.70
2023-05-20T09:20:25.042Z,22.73
2023-05-20T09:21:25.072Z,23.00
2023-05-20T09:22:26.372Z,23.06
2023-05-20T09:23:25.135Z,22.82
2023-05-20T09:24:25.185Z,22.14
2023-05-20T09:26:07.835Z,22.12
2023-05-20T09:27:07.879Z,22.30
2023-05-20T09:28:07.891Z,22.41
2023-05-20T09:29:08.930Z,22.69
2023-05-20T09:30:07.969Z,22.67
2023-05-20T09:31:10.811Z,22.92
2023-05-20T09:32:08.062Z,22.94
2023-05-20T09:33:08.094Z,23.00
2023-05-20T09:34:08.095Z,23.15
2023-05-20T09:42:09.072Z,23.12
2023-05-20T09:46:08.674Z,23.38
2023-05-20T09:48:08.604Z,23.60
2023-05-20T09:55:03.759Z,23.96
2023-05-20T09:56:01.178Z,23.75
2023-05-20T09:57:01.214Z,23.48
2023-05-20T09:58:01.234Z,23.16
2023-05-20T09:59:01.483Z,22.59
2023-05-20T10:00:01.298Z,22.64
2023-05-20T10:01:01.414Z,22.52
2023-05-20T10:02:01.414Z,22.31
2023-05-20T10:03:01.488Z,22.30
2023-05-20T10:04:01.684Z,22.15
2023-05-20T10:05:01.480Z,22.57
2023-05-20T10:06:01.731Z,22.70
2023-05-20T10:07:01.953Z,22.76
2023-05-20T10:08:01.782Z,22.60
2023-05-20T10:09:01.599Z,22.57
2023-05-20T10:10:01.635Z,22.30
2023-05-20T10:11:01.669Z,22.20
2023-05-20T10:12:01.704Z,22.34
2023-05-20T10:13:01.731Z,22.24
2023-05-20T10:14:01.774Z,22.26
2023-05-20T10:15:01.820Z,22.20
2023-05-20T10:16:01.866Z,22.30
2023-05-20T10:17:01.880Z,22.26
2023-05-20T10:18:01.967Z,22.36
2023-05-20T10:19:01.981Z,22.51
2023-05-20T10:20:02.170Z,22.36
2023-05-20T10:21:02.013Z,22.29
2023-05-20T10:22:02.100Z,22.16
2023-05-20T10:23:02.077Z,22.15
2023-05-20T10:24:02.846Z,21.93
2023-05-20T10:25:02.151Z,21.76
2023-05-20T10:26:02.165Z,21.55
2023-05-20T10:27:02.206Z,21.48
2023-05-20T10:28:02.252Z,21.49
2023-05-20T10:29:02.279Z,21.49
2023-05-20T10:30:02.315Z,21.46
2023-05-20T10:31:02.553Z,21.64
2023-05-20T10:32:02.407Z,21.90
2023-05-20T10:33:02.551Z,21.97
2023-05-20T10:34:02.460Z,21.83
2023-05-20T10:35:02.461Z,21.76
2023-05-20T10:36:02.930Z,21.73
2023-05-20T10:38:02.785Z,21.28
2023-05-20T10:39:02.607Z,21.06
2023-05-20T10:40:02.635Z,20.91
2023-05-20T10:41:02.673Z,21.15
2023-05-20T10:42:02.702Z,21.15
2023-05-20T10:43:02.949Z,21.06
2023-05-20T10:45:03.608Z,21.49
2023-05-20T10:46:05.159Z,21.38
2023-05-20T10:48:03.804Z,21.22
2023-05-20T10:49:03.169Z,21.13
2023-05-20T10:51:03.026Z,21.40
2023-05-20T10:52:03.227Z,21.43
2023-05-20T10:53:03.083Z,21.37
2023-05-20T10:57:03.192Z,21.62
2023-05-20T10:58:03.221Z,21.78
2023-05-20T10:59:03.464Z,21.56
2023-05-20T11:00:03.300Z,21.80
2023-05-20T11:02:03.757Z,21.66
2023-05-20T11:03:03.681Z,21.77
2023-05-20T11:04:03.631Z,21.59
2023-05-20T11:05:03.657Z,21.66
2023-05-20T11:06:03.497Z,21.89
2023-05-20T11:07:03.934Z,21.99
2023-05-20T11:08:08.081Z,22.22
2023-05-20T11:09:03.781Z,22.15
2023-05-20T11:10:03.608Z,22.31
2023-05-20T11:11:04.152Z,22.46
2023-05-20T11:13:03.736Z,22.42
2023-05-20T11:14:03.943Z,22.42
2023-05-20T11:15:04.187Z,22.20
2023-05-20T11:16:03.849Z,22.00
2023-05-20T11:18:04.125Z,22.05
2023-05-20T11:19:04.342Z,22.23
2023-05-20T11:20:04.145Z,22.29
2023-05-20T11:21:04.170Z,22.36
2023-05-20T11:23:04.042Z,22.61
2023-05-20T11:24:04.492Z,22.81
2023-05-20T11:25:04.100Z,22.78
2023-05-20T11:29:04.239Z,22.63
2023-05-20T11:30:04.468Z,22.73
2023-05-20T11:31:04.303Z,22.89
2023-05-20T11:32:05.310Z,22.69
2023-05-20T11:35:04.847Z,22.75
2023-05-20T11:36:08.671Z,22.81
2023-05-20T11:37:04.495Z,23.12
2023-05-20T11:38:04.725Z,23.14
2023-05-20T11:39:04.786Z,23.21
2023-05-20T11:40:04.794Z,22.92
2023-05-20T11:42:04.971Z,22.52
2023-05-20T11:43:04.687Z,22.29
2023-05-20T11:45:04.756Z,22.38
2023-05-20T11:46:04.832Z,22.55
2023-05-20T11:47:04.817Z,22.46
2023-05-20T11:48:05.495Z,22.44
2023-05-20T11:49:04.882Z,22.64
2023-05-20T11:50:04.913Z,22.67
2023-05-20T11:51:04.940Z,22.88
2023-05-20T11:52:04.978Z,22.71
2023-05-20T11:53:05.016Z,22.76
2023-05-20T11:54:05.033Z,22.71
2023-05-20T11:55:05.096Z,22.63
2023-05-20T11:56:05.108Z,22.57
2023-05-20T11:57:06.985Z,22.52
2023-05-20T11:58:05.181Z,22.26
2023-05-20T11:59:05.200Z,21.97
2023-05-20T12:00:05.234Z,21.89
2023-05-20T12:01:21.157Z,21.76
2023-05-20T12:02:05.289Z,21.53
2023-05-20T12:03:05.372Z,21.34
2023-05-20T12:04:05.589Z,21.25
2023-05-20T12:05:05.452Z,21.25
2023-05-20T12:06:05.423Z,21.09
2023-05-20T12:07:05.455Z,21.21
2023-05-20T12:08:05.503Z,21.15
2023-05-20T12:09:05.520Z,21.22
2023-05-20T12:10:05.605Z,21.15
2023-05-20T12:11:05.602Z,21.33
2023-05-20T12:12:05.612Z,21.30
2023-05-20T12:13:05.646Z,21.33
2023-05-20T12:14:05.697Z,21.18
2023-05-20T12:15:05.707Z,21.33
2023-05-20T12:16:08.392Z,21.41
2023-05-20T12:17:05.774Z,21.56
2023-05-20T12:18:05.886Z,21.83
2023-05-20T12:19:05.960Z,21.80
2023-05-20T12:20:05.866Z,21.93
2023-05-20T12:21:05.901Z,21.94
2023-05-20T12:22:05.933Z,22.20
2023-05-20T12:23:05.965Z,22.31
2023-05-20T12:24:05.996Z,22.41
2023-05-20T12:25:06.034Z,22.29
2023-05-20T12:26:06.058Z,22.33
2023-05-20T12:27:06.120Z,22.24
2023-05-20T12:28:06.120Z,22.39
2023-05-20T12:29:06.175Z,22.63
2023-05-20T12:30:06.198Z,22.59
2023-05-20T12:31:06.308Z,22.33
2023-05-20T12:32:06.434Z,22.33
2023-05-20T12:33:06.345Z,22.38
2023-05-20T12:34:06.311Z,22.26
2023-05-20T12:35:06.345Z,22.41
2023-05-20T12:36:06.386Z,22.63
2023-05-20T12:37:06.410Z,22.69
2023-05-20T12:38:06.440Z,22.82
2023-05-20T12:39:06.474Z,22.86
2023-05-20T12:40:06.505Z,22.48
2023-05-20T12:41:06.537Z,22.44
2023-05-20T12:42:06.568Z,22.48
2023-05-20T12:43:06.725Z,22.54
2023-05-20T12:44:06.640Z,22.42
2023-05-20T12:45:06.667Z,22.42
2023-05-20T12:46:06.701Z,22.57
2023-05-20T12:47:06.782Z,22.22
2023-05-20T12:48:06.837Z,21.97
2023-05-20T12:49:06.795Z,22.20
2023-05-20T12:50:06.830Z,22.23
2023-05-20T12:51:06.859Z,22.20
2023-05-20T12:52:15.318Z,22.22
2023-05-20T12:53:06.924Z,22.23
2023-05-20T12:54:06.956Z,22.27
2023-05-20T12:55:06.989Z,22.38
2023-05-20T12:56:08.060Z,22.49
2023-05-20T12:57:07.065Z,22.55
2023-05-20T12:58:07.089Z,22.60
2023-05-20T12:59:07.138Z,22.61
2023-05-20T13:00:07.148Z,22.69
2023-05-20T13:01:07.240Z,22.61
2023-05-20T13:02:07.247Z,22.39
2023-05-20T13:03:07.410Z,22.15
2023-05-20T13:04:07.285Z,22.18
2023-05-20T13:05:07.317Z,21.96
2023-05-20T13:06:07.342Z,21.92
2023-05-20T13:07:07.377Z,22.12
2023-05-20T13:08:07.408Z,22.12
2023-05-20T13:09:07.442Z,22.00
2023-05-20T13:10:07.494Z,22.08
2023-05-20T13:11:07.511Z,22.05
2023-05-20T13:12:07.537Z,21.97
2023-05-20T13:13:07.600Z,22.02
2023-05-20T13:14:07.598Z,21.92
2023-05-20T13:15:07.699Z,22.08
2023-05-20T13:16:07.827Z,21.92
2023-05-20T13:17:07.830Z,21.71
2023-05-20T13:18:07.762Z,21.64
2023-05-20T13:19:07.813Z,21.67
2023-05-20T13:20:07.801Z,21.74
2023-05-20T13:21:07.829Z,21.58
2023-05-20T13:22:07.861Z,21.83
2023-05-20T13:23:07.905Z,21.94
2023-05-20T13:24:07.949Z,22.02
2023-05-20T13:25:07.973Z,21.97
2023-05-20T13:26:07.988Z,21.96
2023-05-20T13:27:08.020Z,22.08
2023-05-20T13:28:08.068Z,22.12
2023-05-20T13:29:08.085Z,22.12
2023-05-20T13:30:08.248Z,22.02
2023-05-20T13:31:08.246Z,21.99
2023-05-20T13:32:08.187Z,22.07
2023-05-20T13:33:08.256Z,22.15
2023-05-20T13:34:08.245Z,21.83
2023-05-20T13:35:08.283Z,21.92
2023-05-20T13:36:08.314Z,21.89